sensor_id;sensor_type;location;lat;lon;timestamp;P1;durP1;ratioP1;P2;durP2;ratioP2
69057;SDS011;56128;37.534;-122.308;2023-10-08T00:00:46;4.80;;;1.70;;
69057;SDS011;56128;37.534;-122.308;2023-10-08T00:03:18;3.30;;;1.70;;
69057;SDS011;56128;37.534;-122.308;2023-10-08T00:05:46;3.90;;;1.58;;
69057;SDS011;56128;37.534;-122.308;2023-10-08T00:08:14;3.35;;;1.60;;
69057;SDS011;56128;37.534;-122.308;2023-10-08T00:10:42;3.30;;;1.48;;
69057;SDS011;56128;37.534;-122.308;2023-10-08T00:13:09;5.45;;;1.50;;
69057;SDS011;56128;37.534;-122.308;2023-10-08T00:15:41;3.35;;;1.95;;
69057;SDS011;56128;37.534;-122.308;2023-10-08T00:18:18;2.72;;;1.40;;
69057;SDS011;56128;37.534;-122.308;2023-10-08T00:20:45;4.03;;;1.48;;
69057;SDS011;56128;37.534;-122.308;2023-10-08T00:23:23;4.95;;;1.50;;
69057;SDS011;56128;37.534;-122.308;2023-10-08T00:25:53;4.63;;;1.70;;
69057;SDS011;56128;37.534;-122.308;2023-10-08T00:28:20;4.55;;;1.55;;
69057;SDS011;56128;37.534;-122.308;2023-10-08T00:30:47;3.13;;;1.75;;
69057;SDS011;56128;37.534;-122.308;2023-10-08T00:33:19;3.33;;;1.70;;
69057;SDS011;56128;37.534;-122.308;2023-10-08T00:35:45;3.10;;;1.55;;
69057;SDS011;56128;37.534;-122.308;2023-10-08T00:38:12;4.20;;;1.60;;
69057;SDS011;56128;37.534;-122.308;2023-10-08T00:40:46;3.97;;;1.83;;
69057;SDS011;56128;37.534;-122.308;2023-10-08T00:43:33;2.70;;;1.60;;
69057;SDS011;56128;37.534;-122.308;2023-10-08T00:46:01;4.03;;;1.80;;
69057;SDS011;56128;37.534;-122.308;2023-10-08T00:48:44;3.17;;;1.60;;
69057;SDS011;56128;37.534;-122.308;2023-10-08T00:51:11;2.70;;;1.50;;
69057;SDS011;56128;37.534;-122.308;2023-10-08T00:54:03;3.75;;;1.63;;
69057;SDS011;56128;37.534;-122.308;2023-10-08T00:56:33;4.45;;;2.00;;
69057;SDS011;56128;37.534;-122.308;2023-10-08T00:59:31;3.65;;;1.67;;
69057;SDS011;56128;37.534;-122.308;2023-10-08T01:02:10;4.65;;;1.55;;
69057;SDS011;56128;37.534;-122.308;2023-10-08T01:04:41;4.70;;;1.67;;
69057;SDS011;56128;37.534;-122.308;2023-10-08T01:07:10;3.75;;;1.70;;
69057;SDS011;56128;37.534;-122.308;2023-10-08T01:09:43;4.65;;;1.70;;
69057;SDS011;56128;37.534;-122.308;2023-10-08T01:12:17;4.30;;;1.52;;
69057;SDS011;56128;37.534;-122.308;2023-10-08T01:14:50;3.15;;;1.40;;
69057;SDS011;56128;37.534;-122.308;2023-10-08T01:17:19;3.35;;;1.52;;
69057;SDS011;56128;37.534;-122.308;2023-10-08T01:19:50;3.53;;;1.50;;
69057;SDS011;56128;37.534;-122.308;2023-10-08T01:22:21;4.40;;;1.60;;
69057;SDS011;56128;37.534;-122.308;2023-10-08T01:24:48;4.65;;;1.60;;
69057;SDS011;56128;37.534;-122.308;2023-10-08T01:27:18;4.30;;;1.60;;
69057;SDS011;56128;37.534;-122.308;2023-10-08T01:29:47;4.20;;;1.20;;
69057;SDS011;56128;37.534;-122.308;2023-10-08T01:32:17;3.92;;;1.38;;
69057;SDS011;56128;37.534;-122.308;2023-10-08T01:34:45;4.57;;;1.73;;
69057;SDS011;56128;37.534;-122.308;2023-10-08T01:37:12;3.10;;;1.80;;
69057;SDS011;56128;37.534;-122.308;2023-10-08T01:39:43;3.35;;;2.08;;
69057;SDS011;56128;37.534;-122.308;2023-10-08T01:42:11;3.42;;;1.60;;
69057;SDS011;56128;37.534;-122.308;2023-10-08T01:44:49;2.67;;;1.60;;
69057;SDS011;56128;37.534;-122.308;2023-10-08T01:47:16;2.78;;;1.38;;
69057;SDS011;56128;37.534;-122.308;2023-10-08T01:49:43;2.60;;;1.45;;
69057;SDS011;56128;37.534;-122.308;2023-10-08T01:52:11;2.80;;;1.60;;
69057;SDS011;56128;37.534;-122.308;2023-10-08T01:54:50;2.10;;;1.30;;
69057;SDS011;56128;37.534;-122.308;2023-10-08T01:57:19;2.37;;;1.17;;
69057;SDS011;56128;37.534;-122.308;2023-10-08T01:59:45;2.90;;;1.52;;
69057;SDS011;56128;37.534;-122.308;2023-10-08T02:02:11;2.90;;;1.20;;
69057;SDS011;56128;37.534;-122.308;2023-10-08T02:04:40;2.72;;;1.20;;
69057;SDS011;56128;37.534;-122.308;2023-10-08T02:07:06;4.05;;;1.20;;
69057;SDS011;56128;37.534;-122.308;2023-10-08T02:09:33;2.60;;;1.30;;
69057;SDS011;56128;37.534;-122.308;2023-10-08T02:12:00;4.05;;;1.35;;
69057;SDS011;56128;37.534;-122.308;2023-10-08T02:14:26;1.77;;;1.27;;
69057;SDS011;56128;37.534;-122.308;2023-10-08T02:16:57;2.33;;;1.20;;
69057;SDS011;56128;37.534;-122.308;2023-10-08T02:19:29;5.82;;;1.73;;
69057;SDS011;56128;37.534;-122.308;2023-10-08T02:21:56;2.50;;;1.55;;
69057;SDS011;56128;37.534;-122.308;2023-10-08T02:24:23;3.28;;;1.23;;
69057;SDS011;56128;37.534;-122.308;2023-10-08T02:26:51;2.13;;;1.23;;
69057;SDS011;56128;37.534;-122.308;2023-10-08T02:29:25;2.70;;;1.30;;
69057;SDS011;56128;37.534;-122.308;2023-10-08T02:31:52;2.58;;;1.10;;
69057;SDS011;56128;37.534;-122.308;2023-10-08T02:34:19;2.63;;;1.10;;
69057;SDS011;56128;37.534;-122.308;2023-10-08T02:36:45;3.65;;;1.20;;
69057;SDS011;56128;37.534;-122.308;2023-10-08T02:39:14;3.72;;;1.48;;
69057;SDS011;56128;37.534;-122.308;2023-10-08T02:41:47;3.17;;;1.20;;
69057;SDS011;56128;37.534;-122.308;2023-10-08T02:44:18;2.67;;;1.10;;
69057;SDS011;56128;37.534;-122.308;2023-10-08T02:46:46;2.47;;;1.50;;
69057;SDS011;56128;37.534;-122.308;2023-10-08T02:49:14;3.22;;;1.25;;
69057;SDS011;56128;37.534;-122.308;2023-10-08T02:51:51;2.67;;;1.27;;
69057;SDS011;56128;37.534;-122.308;2023-10-08T02:54:19;3.13;;;1.30;;
69057;SDS011;56128;37.534;-122.308;2023-10-08T02:56:49;2.95;;;1.30;;
69057;SDS011;56128;37.534;-122.308;2023-10-08T02:59:17;1.80;;;1.00;;
69057;SDS011;56128;37.534;-122.308;2023-10-08T03:01:47;2.08;;;1.15;;
69057;SDS011;56128;37.534;-122.308;2023-10-08T03:04:21;2.70;;;1.05;;
69057;SDS011;56128;37.534;-122.308;2023-10-08T03:06:49;3.60;;;1.40;;
69057;SDS011;56128;37.534;-122.308;2023-10-08T03:09:19;2.60;;;1.20;;
69057;SDS011;56128;37.534;-122.308;2023-10-08T03:11:49;2.20;;;1.30;;
69057;SDS011;56128;37.534;-122.308;2023-10-08T03:14:16;4.63;;;1.40;;
69057;SDS011;56128;37.534;-122.308;2023-10-08T03:19:19;3.10;;;1.33;;
69057;SDS011;56128;37.534;-122.308;2023-10-08T03:21:48;4.13;;;1.80;;
69057;SDS011;56128;37.534;-122.308;2023-10-08T03:24:20;4.75;;;2.28;;
69057;SDS011;56128;37.534;-122.308;2023-10-08T03:27:03;6.72;;;2.90;;
69057;SDS011;56128;37.534;-122.308;2023-10-08T03:29:51;9.55;;;3.55;;
69057;SDS011;56128;37.534;-122.308;2023-10-08T03:32:19;7.20;;;3.00;;
69057;SDS011;56128;37.534;-122.308;2023-10-08T03:34:51;6.23;;;3.10;;
69057;SDS011;56128;37.534;-122.308;2023-10-08T03:37:21;9.75;;;3.10;;
69057;SDS011;56128;37.534;-122.308;2023-10-08T03:40:06;6.80;;;2.90;;
69057;SDS011;56128;37.534;-122.308;2023-10-08T03:42:52;7.78;;;3.13;;
69057;SDS011;56128;37.534;-122.308;2023-10-08T03:45:21;9.73;;;3.40;;
69057;SDS011;56128;37.534;-122.308;2023-10-08T03:48:06;9.70;;;3.13;;
69057;SDS011;56128;37.534;-122.308;2023-10-08T03:50:36;8.40;;;2.90;;
69057;SDS011;56128;37.534;-122.308;2023-10-08T03:53:09;15.32;;;3.33;;
69057;SDS011;56128;37.534;-122.308;2023-10-08T03:55:38;7.38;;;2.70;;
69057;SDS011;56128;37.534;-122.308;2023-10-08T03:58:08;8.02;;;3.00;;
69057;SDS011;56128;37.534;-122.308;2023-10-08T04:00:39;6.18;;;2.85;;
69057;SDS011;56128;37.534;-122.308;2023-10-08T04:03:10;5.78;;;2.28;;
69057;SDS011;56128;37.534;-122.308;2023-10-08T04:05:37;4.43;;;2.13;;
69057;SDS011;56128;37.534;-122.308;2023-10-08T04:08:25;4.90;;;2.08;;
69057;SDS011;56128;37.534;-122.308;2023-10-08T04:11:17;3.85;;;1.80;;
69057;SDS011;56128;37.534;-122.308;2023-10-08T04:14:00;5.07;;;2.03;;
69057;SDS011;56128;37.534;-122.308;2023-10-08T04:16:28;5.03;;;2.03;;
69057;SDS011;56128;37.534;-122.308;2023-10-08T04:18:55;3.28;;;1.80;;
69057;SDS011;56128;37.534;-122.308;2023-10-08T04:21:22;4.38;;;1.80;;
69057;SDS011;56128;37.534;-122.308;2023-10-08T04:23:53;7.38;;;2.15;;
69057;SDS011;56128;37.534;-122.308;2023-10-08T04:26:22;4.32;;;2.00;;
69057;SDS011;56128;37.534;-122.308;2023-10-08T04:28:56;4.63;;;1.92;;
69057;SDS011;56128;37.534;-122.308;2023-10-08T04:31:24;4.93;;;1.95;;
69057;SDS011;56128;37.534;-122.308;2023-10-08T04:33:53;3.30;;;1.80;;
69057;SDS011;56128;37.534;-122.308;2023-10-08T04:36:20;4.28;;;1.80;;
69057;SDS011;56128;37.534;-122.308;2023-10-08T04:38:46;5.38;;;1.90;;
69057;SDS011;56128;37.534;-122.308;2023-10-08T04:41:20;4.30;;;2.00;;
69057;SDS011;56128;37.534;-122.308;2023-10-08T04:46:21;8.65;;;2.30;;
69057;SDS011;56128;37.534;-122.308;2023-10-08T04:49:12;5.20;;;1.83;;
69057;SDS011;56128;37.534;-122.308;2023-10-08T04:52:03;6.60;;;1.90;;
69057;SDS011;56128;37.534;-122.308;2023-10-08T04:54:53;5.32;;;2.00;;
69057;SDS011;56128;37.534;-122.308;2023-10-08T04:57:20;6.72;;;2.20;;
69057;SDS011;56128;37.534;-122.308;2023-10-08T04:59:55;3.90;;;2.10;;
69057;SDS011;56128;37.534;-122.308;2023-10-08T05:02:22;4.50;;;1.90;;
69057;SDS011;56128;37.534;-122.308;2023-10-08T05:05:07;3.45;;;1.90;;
69057;SDS011;56128;37.534;-122.308;2023-10-08T05:07:36;4.60;;;2.00;;
69057;SDS011;56128;37.534;-122.308;2023-10-08T05:10:11;6.80;;;1.92;;
69057;SDS011;56128;37.534;-122.308;2023-10-08T05:12:51;5.18;;;2.00;;
69057;SDS011;56128;37.534;-122.308;2023-10-08T05:15:31;3.47;;;2.05;;
69057;SDS011;56128;37.534;-122.308;2023-10-08T05:18:33;5.65;;;2.28;;
69057;SDS011;56128;37.534;-122.308;2023-10-08T05:21:32;4.68;;;2.30;;
69057;SDS011;56128;37.534;-122.308;2023-10-08T05:26:48;5.57;;;2.00;;
69057;SDS011;56128;37.534;-122.308;2023-10-08T05:29:24;3.45;;;1.80;;
69057;SDS011;56128;37.534;-122.308;2023-10-08T05:32:10;4.85;;;1.80;;
69057;SDS011;56128;37.534;-122.308;2023-10-08T05:35:02;4.68;;;1.52;;
69057;SDS011;56128;37.534;-122.308;2023-10-08T05:37:48;4.72;;;2.10;;
69057;SDS011;56128;37.534;-122.308;2023-10-08T05:40:27;4.43;;;1.85;;
69057;SDS011;56128;37.534;-122.308;2023-10-08T05:43:19;3.05;;;1.80;;
69057;SDS011;56128;37.534;-122.308;2023-10-08T05:46:09;3.40;;;1.70;;
69057;SDS011;56128;37.534;-122.308;2023-10-08T05:48:53;4.72;;;1.88;;
69057;SDS011;56128;37.534;-122.308;2023-10-08T05:51:27;4.15;;;1.70;;
69057;SDS011;56128;37.534;-122.308;2023-10-08T05:54:21;3.20;;;1.77;;
69057;SDS011;56128;37.534;-122.308;2023-10-08T05:57:01;3.38;;;1.70;;
69057;SDS011;56128;37.534;-122.308;2023-10-08T05:59:32;8.18;;;2.13;;
69057;SDS011;56128;37.534;-122.308;2023-10-08T06:02:25;3.92;;;1.98;;
69057;SDS011;56128;37.534;-122.308;2023-10-08T06:04:56;4.55;;;1.80;;
69057;SDS011;56128;37.534;-122.308;2023-10-08T06:07:52;3.53;;;1.80;;
69057;SDS011;56128;37.534;-122.308;2023-10-08T06:10:19;6.25;;;2.42;;
69057;SDS011;56128;37.534;-122.308;2023-10-08T06:15:37;2.53;;;1.50;;
69057;SDS011;56128;37.534;-122.308;2023-10-08T06:18:29;4.47;;;1.80;;
69057;SDS011;56128;37.534;-122.308;2023-10-08T06:20:58;5.07;;;1.90;;
69057;SDS011;56128;37.534;-122.308;2023-10-08T06:23:27;4.07;;;2.20;;
69057;SDS011;56128;37.534;-122.308;2023-10-08T06:25:57;3.28;;;1.80;;
69057;SDS011;56128;37.534;-122.308;2023-10-08T06:28:31;3.78;;;1.70;;
69057;SDS011;56128;37.534;-122.308;2023-10-08T06:31:01;3.15;;;1.80;;
69057;SDS011;56128;37.534;-122.308;2023-10-08T06:33:31;3.22;;;1.70;;
69057;SDS011;56128;37.534;-122.308;2023-10-08T06:36:01;3.83;;;1.80;;
69057;SDS011;56128;37.534;-122.308;2023-10-08T06:38:32;4.18;;;1.75;;
69057;SDS011;56128;37.534;-122.308;2023-10-08T06:40:59;6.13;;;2.03;;
69057;SDS011;56128;37.534;-122.308;2023-10-08T06:43:26;3.58;;;1.83;;
69057;SDS011;56128;37.534;-122.308;2023-10-08T06:45:54;6.63;;;1.90;;
69057;SDS011;56128;37.534;-122.308;2023-10-08T06:48:23;6.45;;;2.20;;
69057;SDS011;56128;37.534;-122.308;2023-10-08T06:50:51;4.32;;;1.85;;
69057;SDS011;56128;37.534;-122.308;2023-10-08T06:53:22;3.30;;;1.80;;
69057;SDS011;56128;37.534;-122.308;2023-10-08T06:55:49;5.25;;;1.98;;
69057;SDS011;56128;37.534;-122.308;2023-10-08T06:58:29;2.92;;;1.63;;
69057;SDS011;56128;37.534;-122.308;2023-10-08T07:01:00;2.90;;;1.52;;
69057;SDS011;56128;37.534;-122.308;2023-10-08T07:03:34;3.83;;;1.70;;
69057;SDS011;56128;37.534;-122.308;2023-10-08T07:06:03;3.83;;;1.60;;
69057;SDS011;56128;37.534;-122.308;2023-10-08T07:08:42;3.33;;;1.80;;
69057;SDS011;56128;37.534;-122.308;2023-10-08T07:11:12;3.50;;;1.80;;
69057;SDS011;56128;37.534;-122.308;2023-10-08T07:13:39;3.05;;;1.83;;
69057;SDS011;56128;37.534;-122.308;2023-10-08T07:16:07;3.20;;;1.95;;
69057;SDS011;56128;37.534;-122.308;2023-10-08T07:18:39;2.85;;;1.60;;
69057;SDS011;56128;37.534;-122.308;2023-10-08T07:21:07;3.58;;;1.70;;
69057;SDS011;56128;37.534;-122.308;2023-10-08T07:23:39;4.93;;;1.92;;
69057;SDS011;56128;37.534;-122.308;2023-10-08T07:26:27;3.65;;;1.70;;
69057;SDS011;56128;37.534;-122.308;2023-10-08T07:29:03;4.07;;;1.80;;
69057;SDS011;56128;37.534;-122.308;2023-10-08T07:31:33;3.55;;;1.67;;
69057;SDS011;56128;37.534;-122.308;2023-10-08T07:34:02;3.63;;;1.90;;
69057;SDS011;56128;37.534;-122.308;2023-10-08T07:36:42;5.45;;;2.20;;
69057;SDS011;56128;37.534;-122.308;2023-10-08T07:39:09;4.53;;;2.13;;
69057;SDS011;56128;37.534;-122.308;2023-10-08T07:41:50;4.38;;;1.90;;
69057;SDS011;56128;37.534;-122.308;2023-10-08T07:44:19;4.75;;;1.80;;
69057;SDS011;56128;37.534;-122.308;2023-10-08T07:46:50;4.10;;;2.00;;
69057;SDS011;56128;37.534;-122.308;2023-10-08T07:49:17;4.18;;;2.17;;
69057;SDS011;56128;37.534;-122.308;2023-10-08T07:51:44;3.80;;;2.00;;
69057;SDS011;56128;37.534;-122.308;2023-10-08T07:54:19;4.07;;;2.03;;
69057;SDS011;56128;37.534;-122.308;2023-10-08T07:56:48;5.32;;;1.98;;
69057;SDS011;56128;37.534;-122.308;2023-10-08T07:59:16;5.03;;;2.00;;
69057;SDS011;56128;37.534;-122.308;2023-10-08T08:01:43;5.00;;;2.10;;
69057;SDS011;56128;37.534;-122.308;2023-10-08T08:04:10;4.43;;;2.00;;
69057;SDS011;56128;37.534;-122.308;2023-10-08T08:06:47;8.13;;;2.25;;
69057;SDS011;56128;37.534;-122.308;2023-10-08T08:09:17;5.10;;;2.00;;
69057;SDS011;56128;37.534;-122.308;2023-10-08T08:11:45;4.18;;;1.95;;
69057;SDS011;56128;37.534;-122.308;2023-10-08T08:14:15;4.50;;;1.80;;
69057;SDS011;56128;37.534;-122.308;2023-10-08T08:16:50;4.63;;;2.28;;
69057;SDS011;56128;37.534;-122.308;2023-10-08T08:19:17;4.90;;;2.10;;
69057;SDS011;56128;37.534;-122.308;2023-10-08T08:21:49;6.22;;;2.20;;
69057;SDS011;56128;37.534;-122.308;2023-10-08T08:24:17;8.73;;;1.83;;
69057;SDS011;56128;37.534;-122.308;2023-10-08T08:27:04;5.60;;;2.35;;
69057;SDS011;56128;37.534;-122.308;2023-10-08T08:29:36;4.80;;;1.85;;
69057;SDS011;56128;37.534;-122.308;2023-10-08T08:32:13;9.48;;;2.10;;
69057;SDS011;56128;37.534;-122.308;2023-10-08T08:34:46;6.35;;;2.33;;
69057;SDS011;56128;37.534;-122.308;2023-10-08T08:37:18;4.70;;;2.08;;
69057;SDS011;56128;37.534;-122.308;2023-10-08T08:39:48;5.53;;;2.13;;
69057;SDS011;56128;37.534;-122.308;2023-10-08T08:42:14;4.75;;;1.83;;
69057;SDS011;56128;37.534;-122.308;2023-10-08T08:44:45;3.25;;;1.80;;
69057;SDS011;56128;37.534;-122.308;2023-10-08T08:47:12;5.90;;;2.45;;
69057;SDS011;56128;37.534;-122.308;2023-10-08T08:49:50;7.72;;;2.38;;
69057;SDS011;56128;37.534;-122.308;2023-10-08T08:52:20;3.42;;;2.00;;
69057;SDS011;56128;37.534;-122.308;2023-10-08T08:54:47;4.70;;;2.20;;
69057;SDS011;56128;37.534;-122.308;2023-10-08T08:57:13;4.78;;;1.92;;
69057;SDS011;56128;37.534;-122.308;2023-10-08T08:59:43;5.15;;;2.35;;
69057;SDS011;56128;37.534;-122.308;2023-10-08T09:02:15;4.95;;;2.10;;
69057;SDS011;56128;37.534;-122.308;2023-10-08T09:04:43;3.55;;;2.00;;
69057;SDS011;56128;37.534;-122.308;2023-10-08T09:07:11;4.88;;;2.28;;
69057;SDS011;56128;37.534;-122.308;2023-10-08T09:09:37;4.13;;;1.92;;
69057;SDS011;56128;37.534;-122.308;2023-10-08T09:12:05;5.25;;;2.13;;
69057;SDS011;56128;37.534;-122.308;2023-10-08T09:14:35;5.68;;;2.13;;
69057;SDS011;56128;37.534;-122.308;2023-10-08T09:17:03;4.53;;;2.20;;
69057;SDS011;56128;37.534;-122.308;2023-10-08T09:19:37;4.63;;;2.33;;
69057;SDS011;56128;37.534;-122.308;2023-10-08T09:22:04;3.80;;;2.00;;
69057;SDS011;56128;37.534;-122.308;2023-10-08T09:24:36;6.07;;;2.50;;
69057;SDS011;56128;37.534;-122.308;2023-10-08T09:27:07;5.47;;;2.72;;
69057;SDS011;56128;37.534;-122.308;2023-10-08T09:29:34;5.05;;;2.22;;
69057;SDS011;56128;37.534;-122.308;2023-10-08T09:32:05;4.82;;;2.08;;
69057;SDS011;56128;37.534;-122.308;2023-10-08T09:34:35;4.57;;;2.10;;
69057;SDS011;56128;37.534;-122.308;2023-10-08T09:37:02;9.05;;;2.78;;
69057;SDS011;56128;37.534;-122.308;2023-10-08T09:39:33;5.82;;;2.65;;
69057;SDS011;56128;37.534;-122.308;2023-10-08T09:42:02;5.25;;;2.47;;
69057;SDS011;56128;37.534;-122.308;2023-10-08T09:44:31;4.28;;;2.42;;
69057;SDS011;56128;37.534;-122.308;2023-10-08T09:47:02;5.47;;;2.65;;
69057;SDS011;56128;37.534;-122.308;2023-10-08T09:49:31;4.13;;;2.10;;
69057;SDS011;56128;37.534;-122.308;2023-10-08T09:52:00;6.97;;;2.35;;
69057;SDS011;56128;37.534;-122.308;2023-10-08T09:54:35;4.30;;;2.65;;
69057;SDS011;56128;37.534;-122.308;2023-10-08T09:57:08;4.10;;;2.35;;
69057;SDS011;56128;37.534;-122.308;2023-10-08T09:59:36;7.20;;;2.78;;
69057;SDS011;56128;37.534;-122.308;2023-10-08T10:02:06;8.40;;;2.80;;
69057;SDS011;56128;37.534;-122.308;2023-10-08T10:04:35;5.93;;;2.63;;
69057;SDS011;56128;37.534;-122.308;2023-10-08T10:07:10;6.55;;;2.50;;
69057;SDS011;56128;37.534;-122.308;2023-10-08T10:09:38;7.05;;;2.50;;
69057;SDS011;56128;37.534;-122.308;2023-10-08T10:12:08;5.55;;;2.67;;
69057;SDS011;56128;37.534;-122.308;2023-10-08T10:14:46;5.47;;;2.45;;
69057;SDS011;56128;37.534;-122.308;2023-10-08T10:17:36;6.00;;;2.38;;
69057;SDS011;56128;37.534;-122.308;2023-10-08T10:20:02;6.63;;;2.40;;
69057;SDS011;56128;37.534;-122.308;2023-10-08T10:22:36;4.55;;;2.25;;
69057;SDS011;56128;37.534;-122.308;2023-10-08T10:25:02;6.28;;;2.55;;
69057;SDS011;56128;37.534;-122.308;2023-10-08T10:30:21;5.55;;;2.50;;
69057;SDS011;56128;37.534;-122.308;2023-10-08T10:32:51;6.18;;;2.53;;
69057;SDS011;56128;37.534;-122.308;2023-10-08T10:35:18;6.85;;;2.70;;
69057;SDS011;56128;37.534;-122.308;2023-10-08T10:37:48;4.50;;;2.33;;
69057;SDS011;56128;37.534;-122.308;2023-10-08T10:40:20;6.45;;;2.60;;
69057;SDS011;56128;37.534;-122.308;2023-10-08T10:43:07;4.22;;;2.60;;
69057;SDS011;56128;37.534;-122.308;2023-10-08T10:45:41;6.30;;;2.90;;
69057;SDS011;56128;37.534;-122.308;2023-10-08T10:48:09;5.88;;;2.60;;
69057;SDS011;56128;37.534;-122.308;2023-10-08T10:50:47;3.83;;;2.35;;
69057;SDS011;56128;37.534;-122.308;2023-10-08T10:53:36;4.82;;;2.38;;
69057;SDS011;56128;37.534;-122.308;2023-10-08T10:56:23;4.53;;;2.40;;
69057;SDS011;56128;37.534;-122.308;2023-10-08T10:58:59;6.95;;;2.63;;
69057;SDS011;56128;37.534;-122.308;2023-10-08T11:01:31;7.28;;;2.80;;
69057;SDS011;56128;37.534;-122.308;2023-10-08T11:04:10;5.35;;;2.83;;
69057;SDS011;56128;37.534;-122.308;2023-10-08T11:06:45;7.32;;;2.50;;
69057;SDS011;56128;37.534;-122.308;2023-10-08T11:09:13;7.05;;;2.90;;
69057;SDS011;56128;37.534;-122.308;2023-10-08T11:11:46;5.78;;;2.70;;
69057;SDS011;56128;37.534;-122.308;2023-10-08T11:14:19;7.47;;;2.85;;
69057;SDS011;56128;37.534;-122.308;2023-10-08T11:16:49;4.38;;;2.30;;
69057;SDS011;56128;37.534;-122.308;2023-10-08T11:19:18;5.25;;;2.47;;
69057;SDS011;56128;37.534;-122.308;2023-10-08T11:21:49;5.20;;;2.80;;
69057;SDS011;56128;37.534;-122.308;2023-10-08T11:24:32;5.18;;;2.95;;
69057;SDS011;56128;37.534;-122.308;2023-10-08T11:26:59;4.97;;;2.50;;
69057;SDS011;56128;37.534;-122.308;2023-10-08T11:29:41;6.75;;;2.90;;
69057;SDS011;56128;37.534;-122.308;2023-10-08T11:32:16;5.32;;;2.95;;
69057;SDS011;56128;37.534;-122.308;2023-10-08T11:34:46;7.80;;;2.70;;
69057;SDS011;56128;37.534;-122.308;2023-10-08T11:37:25;5.05;;;2.33;;
69057;SDS011;56128;37.534;-122.308;2023-10-08T11:39:52;5.10;;;2.58;;
69057;SDS011;56128;37.534;-122.308;2023-10-08T11:42:23;4.75;;;2.22;;
69057;SDS011;56128;37.534;-122.308;2023-10-08T11:45:11;4.18;;;2.63;;
69057;SDS011;56128;37.534;-122.308;2023-10-08T11:47:55;3.75;;;2.38;;
69057;SDS011;56128;37.534;-122.308;2023-10-08T11:50:24;6.50;;;2.90;;
69057;SDS011;56128;37.534;-122.308;2023-10-08T11:52:58;4.55;;;2.30;;
69057;SDS011;56128;37.534;-122.308;2023-10-08T11:55:34;5.35;;;2.50;;
69057;SDS011;56128;37.534;-122.308;2023-10-08T11:58:07;4.80;;;2.63;;
69057;SDS011;56128;37.534;-122.308;2023-10-08T12:00:39;4.00;;;2.63;;
69057;SDS011;56128;37.534;-122.308;2023-10-08T12:03:17;4.28;;;2.47;;
69057;SDS011;56128;37.534;-122.308;2023-10-08T12:05:44;6.57;;;2.80;;
69057;SDS011;56128;37.534;-122.308;2023-10-08T12:08:17;6.57;;;2.80;;
69057;SDS011;56128;37.534;-122.308;2023-10-08T12:10:46;5.30;;;2.75;;
69057;SDS011;56128;37.534;-122.308;2023-10-08T12:13:13;4.55;;;2.85;;
69057;SDS011;56128;37.534;-122.308;2023-10-08T12:15:43;4.85;;;2.92;;
69057;SDS011;56128;37.534;-122.308;2023-10-08T12:18:10;5.18;;;2.42;;
69057;SDS011;56128;37.534;-122.308;2023-10-08T12:20:51;5.32;;;2.60;;
69057;SDS011;56128;37.534;-122.308;2023-10-08T12:23:19;6.07;;;2.97;;
69057;SDS011;56128;37.534;-122.308;2023-10-08T12:25:55;10.93;;;3.47;;
69057;SDS011;56128;37.534;-122.308;2023-10-08T12:28:24;6.50;;;3.08;;
69057;SDS011;56128;37.534;-122.308;2023-10-08T12:30:52;6.88;;;2.97;;
69057;SDS011;56128;37.534;-122.308;2023-10-08T12:33:19;4.60;;;2.78;;
69057;SDS011;56128;37.534;-122.308;2023-10-08T12:35:46;4.55;;;2.50;;
69057;SDS011;56128;37.534;-122.308;2023-10-08T12:38:21;5.43;;;2.58;;
69057;SDS011;56128;37.534;-122.308;2023-10-08T12:40:48;7.28;;;2.60;;
69057;SDS011;56128;37.534;-122.308;2023-10-08T12:43:21;5.93;;;2.80;;
69057;SDS011;56128;37.534;-122.308;2023-10-08T12:45:48;4.60;;;2.85;;
69057;SDS011;56128;37.534;-122.308;2023-10-08T12:48:22;7.75;;;2.80;;
69057;SDS011;56128;37.534;-122.308;2023-10-08T12:50:50;5.38;;;2.78;;
69057;SDS011;56128;37.534;-122.308;2023-10-08T12:53:22;5.57;;;2.80;;
69057;SDS011;56128;37.534;-122.308;2023-10-08T12:56:18;6.13;;;2.97;;
69057;SDS011;56128;37.534;-122.308;2023-10-08T12:58:51;6.40;;;2.97;;
69057;SDS011;56128;37.534;-122.308;2023-10-08T13:01:19;4.45;;;2.72;;
69057;SDS011;56128;37.534;-122.308;2023-10-08T13:03:45;6.50;;;3.00;;
69057;SDS011;56128;37.534;-122.308;2023-10-08T13:06:16;7.80;;;3.08;;
69057;SDS011;56128;37.534;-122.308;2023-10-08T13:08:57;5.95;;;3.10;;
69057;SDS011;56128;37.534;-122.308;2023-10-08T13:11:25;4.72;;;2.58;;
69057;SDS011;56128;37.534;-122.308;2023-10-08T13:13:55;5.05;;;2.70;;
69057;SDS011;56128;37.534;-122.308;2023-10-08T13:16:23;5.15;;;2.80;;
69057;SDS011;56128;37.534;-122.308;2023-10-08T13:18:51;5.60;;;2.90;;
69057;SDS011;56128;37.534;-122.308;2023-10-08T13:21:20;6.07;;;3.00;;
69057;SDS011;56128;37.534;-122.308;2023-10-08T13:23:50;6.38;;;3.03;;
69057;SDS011;56128;37.534;-122.308;2023-10-08T13:26:17;7.03;;;2.97;;
69057;SDS011;56128;37.534;-122.308;2023-10-08T13:28:48;5.75;;;2.95;;
69057;SDS011;56128;37.534;-122.308;2023-10-08T13:31:14;6.25;;;3.20;;
69057;SDS011;56128;37.534;-122.308;2023-10-08T13:33:42;6.80;;;3.17;;
69057;SDS011;56128;37.534;-122.308;2023-10-08T13:36:14;6.13;;;3.05;;
69057;SDS011;56128;37.534;-122.308;2023-10-08T13:38:42;5.40;;;3.00;;
69057;SDS011;56128;37.534;-122.308;2023-10-08T13:41:08;7.03;;;3.03;;
69057;SDS011;56128;37.534;-122.308;2023-10-08T13:43:45;4.97;;;3.13;;
69057;SDS011;56128;37.534;-122.308;2023-10-08T13:46:16;7.90;;;3.05;;
69057;SDS011;56128;37.534;-122.308;2023-10-08T13:48:48;7.18;;;2.92;;
69057;SDS011;56128;37.534;-122.308;2023-10-08T13:51:24;4.22;;;2.90;;
69057;SDS011;56128;37.534;-122.308;2023-10-08T13:56:18;5.30;;;3.17;;
69057;SDS011;56128;37.534;-122.308;2023-10-08T13:58:55;6.32;;;3.17;;
69057;SDS011;56128;37.534;-122.308;2023-10-08T14:01:32;10.18;;;3.20;;
69057;SDS011;56128;37.534;-122.308;2023-10-08T14:03:59;5.03;;;2.90;;
69057;SDS011;56128;37.534;-122.308;2023-10-08T14:06:33;5.72;;;3.15;;
69057;SDS011;56128;37.534;-122.308;2023-10-08T14:09:06;7.55;;;3.03;;
69057;SDS011;56128;37.534;-122.308;2023-10-08T14:11:34;8.55;;;3.38;;
69057;SDS011;56128;37.534;-122.308;2023-10-08T14:14:01;10.40;;;4.07;;
69057;SDS011;56128;37.534;-122.308;2023-10-08T14:16:39;9.00;;;3.60;;
69057;SDS011;56128;37.534;-122.308;2023-10-08T14:19:12;11.30;;;4.33;;
69057;SDS011;56128;37.534;-122.308;2023-10-08T14:21:40;10.98;;;4.05;;
69057;SDS011;56128;37.534;-122.308;2023-10-08T14:24:19;6.90;;;3.65;;
69057;SDS011;56128;37.534;-122.308;2023-10-08T14:26:46;8.45;;;3.55;;
69057;SDS011;56128;37.534;-122.308;2023-10-08T14:29:20;9.48;;;3.50;;
69057;SDS011;56128;37.534;-122.308;2023-10-08T14:31:46;6.75;;;3.40;;
69057;SDS011;56128;37.534;-122.308;2023-10-08T14:34:15;5.47;;;3.13;;
69057;SDS011;56128;37.534;-122.308;2023-10-08T14:36:48;7.18;;;3.60;;
69057;SDS011;56128;37.534;-122.308;2023-10-08T14:39:34;9.15;;;3.38;;
69057;SDS011;56128;37.534;-122.308;2023-10-08T14:42:19;5.70;;;3.13;;
69057;SDS011;56128;37.534;-122.308;2023-10-08T14:45:04;6.20;;;3.15;;
69057;SDS011;56128;37.534;-122.308;2023-10-08T14:47:37;6.15;;;3.28;;
69057;SDS011;56128;37.534;-122.308;2023-10-08T14:50:03;4.32;;;3.10;;
69057;SDS011;56128;37.534;-122.308;2023-10-08T14:52:31;8.07;;;3.10;;
69057;SDS011;56128;37.534;-122.308;2023-10-08T14:54:58;7.05;;;3.45;;